TXKF/BDA METAR and TAF weather

Enter ICAO airport designator
Station Type Date Time Source
TXKF METAR 2020/02/24 08:55 UTC NOAA

TXKF 240855Z 02013KT 9999 FEW050 16/05 Q1020


Station Type Date Time Source
TXKF Decoded METAR 2020/02/24 08:55 UTC NOAA

Bermuda, Bermuda (TXKF) 32-22N 064-41W
Feb 24, 2020 - 03:55 AM EST / 2020.02.24 0855 UTC
Wind: from the NNE (020 degrees) at 15 MPH (13 KT):0
Visibility: greater than 7 mile(s):0
Sky conditions: mostly clear
Temperature: 60 F (16 C)
Dew Point: 41 F (5 C)
Relative Humidity: 47%
Pressure (altimeter): 30.12 in. Hg (1020 hPa)
ob: TXKF 240855Z 02013KT 9999 FEW050 16/05 Q1020
cycle: 9

Station Type Date Time Source
TXKF TAF 2020/02/24 06:55 UTC NOAA

TAF TXKF 240540Z 2406/2506 02010KT 9999 VCSH FEW040 SCT060

Example: see airport list